Login to view Products
 
Tuesday, January 22, 2019 (09:23 UTC)
Fujairah International Airport
ICAO: OMFJ
IATA: FJR
  • METAR OMFJ 220900Z 36012KT 9999 FEW025 24/07 Q1016 A3001=
  • TAF OMFJ 220500Z 2206/2312 280008KT 8000 NSC TEMPO 2208/2212 8007KT FEW025 BECMG 2306/2308 008008KT=
D:\Input Parser\Destinations\Final\05\OMFJL06120500692817981.txt
1